createdAt,value
2022-08-21T00:01:46.812Z,88.58
2022-08-21T00:04:20.853Z,88.80
2022-08-21T00:06:52.339Z,88.88
2022-08-21T00:09:21.275Z,88.66
2022-08-21T00:11:49.518Z,89.24
2022-08-21T00:14:18.173Z,89.35
2022-08-21T00:16:46.293Z,89.42
2022-08-21T00:19:14.297Z,89.29
2022-08-21T00:21:44.361Z,89.35
2022-08-21T00:24:14.695Z,89.65
2022-08-21T00:26:44.407Z,89.06
2022-08-21T00:29:12.400Z,88.74
2022-08-21T00:31:40.445Z,88.70
2022-08-21T00:34:08.965Z,88.59
2022-08-21T00:36:39.024Z,88.53
2022-08-21T00:39:08.750Z,88.12
2022-08-21T00:41:40.076Z,87.97
2022-08-21T00:44:10.862Z,88.45
2022-08-21T00:46:40.480Z,89.17
2022-08-21T00:49:09.797Z,88.76
2022-08-21T00:51:41.923Z,88.26
2022-08-21T00:54:18.265Z,87.96
2022-08-21T00:56:49.033Z,87.70
2022-08-21T00:59:18.336Z,87.67
2022-08-21T01:01:46.488Z,87.64
2022-08-21T01:04:15.982Z,88.22
2022-08-21T01:06:44.138Z,87.91
2022-08-21T01:09:12.314Z,87.64
2022-08-21T01:11:40.547Z,87.31
2022-08-21T01:14:11.271Z,86.94
2022-08-21T01:16:39.709Z,87.25
2022-08-21T01:19:08.844Z,87.06
2022-08-21T01:21:38.225Z,88.81
2022-08-21T01:24:07.034Z,88.37
2022-08-21T01:26:36.571Z,88.63
2022-08-21T01:29:15.662Z,88.36
2022-08-21T01:31:43.669Z,89.04
2022-08-21T01:34:12.568Z,89.58
2022-08-21T01:36:41.931Z,89.44
2022-08-21T01:39:10.165Z,89.31
2022-08-21T01:41:38.257Z,89.63
2022-08-21T01:44:06.803Z,89.70
2022-08-21T01:46:35.166Z,89.65
2022-08-21T01:49:03.364Z,89.89
2022-08-21T01:51:31.350Z,89.54
2022-08-21T01:54:00.712Z,89.03
2022-08-21T01:56:28.918Z,90.21
2022-08-21T01:58:57.290Z,89.95
2022-08-21T02:01:25.519Z,89.02
2022-08-21T02:03:53.591Z,88.68
2022-08-21T02:06:21.622Z,88.34
2022-08-21T02:08:51.526Z,88.16
2022-08-21T02:11:21.324Z,88.00
2022-08-21T02:13:49.276Z,87.51
2022-08-21T02:16:19.462Z,88.24
2022-08-21T02:18:48.053Z,87.79
2022-08-21T02:21:16.312Z,88.13
2022-08-21T02:23:44.917Z,88.45
2022-08-21T02:26:13.828Z,88.31
2022-08-21T02:28:43.298Z,88.52
2022-08-21T02:31:11.604Z,88.38
2022-08-21T02:33:40.361Z,87.99
2022-08-21T02:36:09.587Z,87.58
2022-08-21T02:38:39.114Z,87.42
2022-08-21T02:41:08.598Z,87.45
2022-08-21T02:43:36.865Z,87.13
2022-08-21T02:46:07.763Z,87.39
2022-08-21T02:48:35.805Z,86.93
2022-08-21T02:51:06.400Z,87.08
2022-08-21T02:53:35.182Z,86.81
2022-08-21T02:56:06.123Z,86.84
2022-08-21T02:58:36.957Z,87.07
2022-08-21T03:01:09.425Z,87.36
2022-08-21T03:03:42.072Z,87.12
2022-08-21T03:06:11.358Z,86.98
2022-08-21T03:08:39.863Z,87.24
2022-08-21T03:11:08.731Z,87.30
2022-08-21T03:13:39.936Z,86.89
2022-08-21T03:16:10.758Z,87.01
2022-08-21T03:18:39.374Z,86.46
2022-08-21T03:21:08.083Z,85.98
2022-08-21T03:23:36.211Z,85.98
2022-08-21T03:26:05.364Z,85.67
2022-08-21T03:28:33.453Z,85.87
2022-08-21T03:31:01.492Z,85.61
2022-08-21T03:33:30.990Z,85.26
2022-08-21T03:36:01.953Z,85.26
2022-08-21T03:38:31.674Z,85.55
2022-08-21T03:41:00.962Z,85.76
2022-08-21T03:43:31.077Z,85.64
2022-08-21T03:46:00.808Z,85.72
2022-08-21T03:48:30.272Z,85.54
2022-08-21T03:50:58.321Z,85.01
2022-08-21T03:53:26.592Z,84.50
2022-08-21T03:55:55.220Z,84.10
2022-08-21T03:58:25.604Z,83.83
2022-08-21T04:00:56.546Z,84.18
2022-08-21T04:03:24.723Z,84.09
2022-08-21T04:05:54.102Z,83.82
2022-08-21T04:08:22.127Z,83.92
2022-08-21T04:10:52.604Z,84.18
2022-08-21T04:13:20.758Z,84.51
2022-08-21T04:15:49.083Z,84.56
2022-08-21T04:18:17.368Z,84.72
2022-08-21T04:20:50.281Z,84.94
2022-08-21T04:23:24.528Z,85.13
2022-08-21T04:25:53.854Z,85.18
2022-08-21T04:28:23.142Z,85.58
2022-08-21T04:30:53.003Z,85.79
2022-08-21T04:33:21.406Z,85.91
2022-08-21T04:35:49.980Z,85.97
2022-08-21T04:38:18.218Z,85.69
2022-08-21T04:40:47.668Z,85.76
2022-08-21T04:43:15.695Z,85.77
2022-08-21T04:45:45.817Z,85.88
2022-08-21T04:48:15.215Z,85.67
2022-08-21T04:50:45.861Z,85.63
2022-08-21T04:53:16.356Z,85.85
2022-08-21T04:55:45.363Z,85.86
2022-08-21T04:58:18.322Z,85.97
2022-08-21T05:00:47.063Z,85.73
2022-08-21T05:03:16.730Z,85.78
2022-08-21T05:05:45.262Z,85.83
2022-08-21T05:08:15.382Z,85.46
2022-08-21T05:10:44.140Z,85.35
2022-08-21T05:13:14.556Z,85.17
2022-08-21T05:15:42.970Z,84.99
2022-08-21T05:18:11.142Z,85.15
2022-08-21T05:20:39.130Z,85.54
2022-08-21T05:23:09.934Z,85.04
2022-08-21T05:25:38.702Z,85.52
2022-08-21T05:28:07.992Z,85.70
2022-08-21T05:30:38.025Z,85.40
2022-08-21T05:33:07.645Z,85.56
2022-08-21T05:35:35.855Z,85.47
2022-08-21T05:38:04.390Z,85.20
2022-08-21T05:40:32.385Z,84.71
2022-08-21T05:43:01.148Z,84.81
2022-08-21T05:45:42.344Z,85.05
2022-08-21T05:48:16.129Z,84.79
2022-08-21T05:50:44.796Z,84.76
2022-08-21T05:53:13.491Z,84.66
2022-08-21T05:55:45.659Z,84.91
2022-08-21T05:58:14.592Z,85.04
2022-08-21T06:00:42.904Z,85.08
2022-08-21T06:03:15.045Z,85.54
2022-08-21T06:05:43.176Z,86.32
2022-08-21T06:08:11.321Z,86.53
2022-08-21T06:10:39.523Z,86.06
2022-08-21T06:13:07.508Z,86.10
2022-08-21T06:15:35.499Z,86.85
2022-08-21T06:18:03.742Z,87.18
2022-08-21T06:20:33.693Z,87.44
2022-08-21T06:23:01.862Z,87.35
2022-08-21T06:25:30.129Z,87.40
2022-08-21T06:28:02.965Z,86.62
2022-08-21T06:30:31.043Z,86.30
2022-08-21T06:32:59.770Z,86.51
2022-08-21T06:35:29.991Z,87.06
2022-08-21T06:37:59.755Z,86.74
2022-08-21T06:40:29.790Z,86.80
2022-08-21T06:42:59.587Z,88.34
2022-08-21T06:45:32.258Z,87.93
2022-08-21T06:48:01.003Z,89.28
2022-08-21T06:50:29.356Z,88.94
2022-08-21T06:53:07.314Z,89.30
2022-08-21T06:55:35.671Z,89.57
2022-08-21T06:58:03.861Z,88.24
2022-08-21T07:00:32.032Z,88.15
2022-08-21T07:03:00.490Z,88.38
2022-08-21T07:05:29.651Z,88.45
2022-08-21T07:07:57.987Z,87.89
2022-08-21T07:10:28.445Z,87.92
2022-08-21T07:13:00.894Z,87.55
2022-08-21T07:15:30.909Z,86.80
2022-08-21T07:17:59.506Z,86.73
2022-08-21T07:20:28.243Z,87.62
2022-08-21T07:22:56.741Z,87.98
2022-08-21T07:25:24.762Z,87.38
2022-08-21T07:27:54.169Z,87.05
2022-08-21T07:30:22.276Z,89.01
2022-08-21T07:32:50.849Z,88.56
2022-08-21T07:35:19.704Z,87.90
2022-08-21T07:37:48.290Z,88.44
2022-08-21T07:40:18.108Z,88.22
2022-08-21T07:42:51.099Z,86.89
2022-08-21T07:45:22.014Z,86.15
2022-08-21T07:47:54.252Z,86.33
2022-08-21T07:50:29.741Z,86.29
2022-08-21T07:52:58.047Z,85.73
2022-08-21T07:55:26.366Z,86.88
2022-08-21T07:57:54.511Z,87.42
2022-08-21T08:00:26.990Z,86.50
2022-08-21T08:02:55.645Z,85.82
2022-08-21T08:05:25.638Z,85.91
2022-08-21T08:07:53.693Z,86.58
2022-08-21T08:10:23.044Z,86.70
2022-08-21T08:12:52.271Z,86.51
2022-08-21T08:15:25.521Z,86.08
2022-08-21T08:17:53.756Z,85.59
2022-08-21T08:20:22.572Z,84.30
2022-08-21T08:22:53.893Z,84.62
2022-08-21T08:25:26.269Z,83.07
2022-08-21T08:27:55.637Z,83.16
2022-08-21T08:30:31.260Z,84.55
2022-08-21T08:33:02.177Z,84.39
2022-08-21T08:35:30.455Z,83.99
2022-08-21T08:38:00.958Z,83.68
2022-08-21T08:40:34.374Z,82.88
2022-08-21T08:43:08.913Z,83.07
2022-08-21T08:45:40.176Z,82.49
2022-08-21T08:48:14.112Z,82.46
2022-08-21T08:50:46.338Z,83.01
2022-08-21T08:53:17.308Z,82.64
2022-08-21T08:55:52.290Z,81.53
2022-08-21T08:58:26.292Z,81.26
2022-08-21T09:00:56.987Z,81.06
2022-08-21T09:03:25.936Z,80.36
2022-08-21T09:06:13.333Z,81.13
2022-08-21T09:08:51.069Z,80.90
2022-08-21T09:11:26.290Z,78.37
2022-08-21T09:14:00.163Z,79.58
2022-08-21T09:16:34.727Z,78.64
2022-08-21T09:19:08.933Z,78.82
2022-08-21T09:21:45.214Z,79.78
2022-08-21T09:24:27.807Z,78.41
2022-08-21T09:27:03.178Z,79.27
2022-08-21T09:29:35.650Z,78.70
2022-08-21T09:32:06.624Z,78.57
2022-08-21T09:34:35.738Z,78.01
2022-08-21T09:37:06.007Z,78.11
2022-08-21T09:39:41.175Z,75.84
2022-08-21T09:42:12.447Z,77.23
2022-08-21T09:44:45.052Z,77.30
2022-08-21T09:47:14.958Z,75.55
2022-08-21T09:49:44.385Z,75.22
2022-08-21T09:52:19.003Z,75.87
2022-08-21T09:54:48.551Z,77.58
2022-08-21T09:57:39.437Z,77.35
2022-08-21T10:00:21.739Z,74.81
2022-08-21T10:02:51.097Z,75.12
2022-08-21T10:05:23.746Z,75.28
2022-08-21T10:07:52.298Z,74.98
2022-08-21T10:10:22.433Z,71.74
2022-08-21T10:12:55.279Z,73.28
2022-08-21T10:15:35.775Z,71.84
2022-08-21T10:18:12.374Z,72.42
2022-08-21T10:20:47.399Z,72.80
2022-08-21T10:23:29.709Z,73.54
2022-08-21T10:26:13.317Z,72.21
2022-08-21T10:28:48.089Z,74.12
2022-08-21T10:31:20.730Z,74.98
2022-08-21T10:33:58.199Z,70.82
2022-08-21T10:36:33.113Z,72.99
2022-08-21T10:39:26.013Z,70.51
2022-08-21T10:42:14.399Z,70.77
2022-08-21T10:44:50.747Z,70.44
2022-08-21T10:47:25.221Z,72.97
2022-08-21T10:50:03.851Z,74.01
2022-08-21T10:52:48.352Z,71.17
2022-08-21T10:55:18.994Z,73.47
2022-08-21T10:57:50.412Z,72.85
2022-08-21T11:00:21.078Z,71.98
2022-08-21T11:02:52.697Z,72.75
2022-08-21T11:05:28.471Z,71.36
2022-08-21T11:07:59.863Z,71.66
2022-08-21T11:10:31.887Z,71.15
2022-08-21T11:13:06.585Z,67.32
2022-08-21T11:15:40.594Z,70.63
2022-08-21T11:18:19.568Z,71.45
2022-08-21T11:20:53.898Z,71.54
2022-08-21T11:23:30.305Z,71.07
2022-08-21T11:26:02.918Z,71.10
2022-08-21T11:28:35.000Z,71.20
2022-08-21T11:31:10.868Z,67.65
2022-08-21T11:33:50.343Z,67.79
2022-08-21T11:36:24.162Z,66.33
2022-08-21T11:38:56.895Z,69.12
2022-08-21T11:41:30.602Z,67.48
2022-08-21T11:44:09.399Z,68.36
2022-08-21T11:46:42.997Z,66.50
2022-08-21T11:49:23.575Z,66.14
2022-08-21T11:51:55.853Z,67.04
2022-08-21T11:54:28.910Z,69.14
2022-08-21T11:57:01.812Z,66.30
2022-08-21T11:59:40.645Z,65.58
2022-08-21T12:02:11.696Z,65.50
2022-08-21T12:04:47.147Z,67.35
2022-08-21T12:07:19.319Z,67.11
2022-08-21T12:09:56.059Z,68.05
2022-08-21T12:12:27.642Z,67.58
2022-08-21T12:15:25.701Z,66.17
2022-08-21T12:17:59.684Z,64.91
2022-08-21T12:20:45.091Z,64.96
2022-08-21T12:23:27.942Z,63.90
2022-08-21T12:26:16.366Z,63.04
2022-08-21T12:28:44.386Z,62.77
2022-08-21T12:31:24.771Z,62.59
2022-08-21T12:33:56.859Z,61.47
2022-08-21T12:36:27.167Z,62.33
2022-08-21T12:38:59.901Z,59.49
2022-08-21T12:41:30.207Z,63.18
2022-08-21T12:44:01.045Z,63.31
2022-08-21T12:46:34.289Z,63.61
2022-08-21T12:49:05.170Z,57.74
2022-08-21T12:51:37.043Z,59.58
2022-08-21T12:54:06.520Z,63.31
2022-08-21T12:56:37.109Z,62.10
2022-08-21T12:59:07.669Z,59.30
2022-08-21T13:01:45.947Z,61.05
2022-08-21T13:04:17.062Z,58.28
2022-08-21T13:06:47.425Z,54.79
2022-08-21T13:09:19.371Z,56.60
2022-08-21T13:11:49.823Z,57.91
2022-08-21T13:14:26.975Z,57.68
2022-08-21T13:16:56.975Z,55.68
2022-08-21T13:19:26.576Z,50.71
2022-08-21T13:21:55.060Z,49.13
2022-08-21T13:24:41.849Z,52.10
2022-08-21T13:27:26.794Z,55.63
2022-08-21T13:30:07.087Z,58.71
2022-08-21T13:32:38.763Z,56.09
2022-08-21T13:35:13.113Z,54.09
2022-08-21T13:37:42.394Z,52.21
2022-08-21T13:40:15.980Z,53.69
2022-08-21T13:42:45.668Z,52.35
2022-08-21T13:45:20.779Z,49.44
2022-08-21T13:47:49.830Z,51.73
2022-08-21T13:50:20.643Z,51.44
2022-08-21T13:52:58.585Z,52.75
2022-08-21T13:55:37.358Z,50.10
2022-08-21T13:58:06.352Z,56.75
2022-08-21T14:00:37.372Z,50.97
2022-08-21T14:03:08.561Z,49.02
2022-08-21T14:05:39.990Z,49.62
2022-08-21T14:08:10.766Z,44.91
2022-08-21T14:10:45.713Z,44.65
2022-08-21T14:13:38.181Z,51.59
2022-08-21T14:16:18.215Z,43.94
2022-08-21T14:18:48.515Z,50.71
2022-08-21T14:21:27.348Z,49.77
2022-08-21T14:24:04.293Z,51.07
2022-08-21T14:26:36.707Z,46.49
2022-08-21T14:29:10.242Z,48.91
2022-08-21T14:31:43.128Z,54.90
2022-08-21T14:34:19.012Z,49.30
2022-08-21T14:36:48.888Z,47.08
2022-08-21T14:39:17.591Z,46.42
2022-08-21T14:41:49.503Z,50.20
2022-08-21T14:44:18.742Z,49.30
2022-08-21T14:46:56.064Z,49.80
2022-08-21T14:49:28.349Z,47.79
2022-08-21T14:51:58.511Z,46.45
2022-08-21T14:54:30.813Z,42.14
2022-08-21T14:57:06.919Z,46.23
2022-08-21T14:59:35.064Z,51.38
2022-08-21T15:02:05.234Z,46.58
2022-08-21T15:04:34.060Z,48.45
2022-08-21T15:07:02.627Z,48.75
2022-08-21T15:09:30.839Z,50.24
2022-08-21T15:12:01.000Z,48.31
2022-08-21T15:14:32.135Z,48.24
2022-08-21T15:17:00.181Z,48.11
2022-08-21T15:19:28.413Z,41.05
2022-08-21T15:21:56.485Z,43.53
2022-08-21T15:24:24.789Z,48.17
2022-08-21T15:26:53.758Z,46.42
2022-08-21T15:29:22.907Z,45.56
2022-08-21T15:31:57.550Z,50.11
2022-08-21T15:34:27.372Z,45.60
2022-08-21T15:36:57.172Z,45.00
2022-08-21T15:39:30.160Z,44.62
2022-08-21T15:42:00.154Z,40.43
2022-08-21T15:44:34.322Z,41.04
2022-08-21T15:47:03.922Z,44.77
2022-08-21T15:49:32.766Z,40.68
2022-08-21T15:52:00.736Z,43.54
2022-08-21T15:54:28.803Z,41.40
2022-08-21T15:56:56.790Z,43.46
2022-08-21T15:59:24.765Z,41.33
2022-08-21T16:01:53.361Z,44.56
2022-08-21T16:04:25.082Z,39.53
2022-08-21T16:06:57.684Z,42.60
2022-08-21T16:09:30.049Z,43.09
2022-08-21T16:11:58.078Z,43.74
2022-08-21T16:14:26.071Z,43.74
2022-08-21T16:16:54.756Z,39.46
2022-08-21T16:19:24.250Z,43.20
2022-08-21T16:21:52.323Z,42.94
2022-08-21T16:24:20.312Z,41.54
2022-08-21T16:26:56.145Z,41.44
2022-08-21T16:29:26.583Z,43.55
2022-08-21T16:31:55.227Z,42.28
2022-08-21T16:34:24.993Z,42.67
2022-08-21T16:36:52.986Z,43.58
2022-08-21T16:39:21.117Z,43.66
2022-08-21T16:41:49.977Z,43.80
2022-08-21T16:44:18.294Z,44.66
2022-08-21T16:46:46.577Z,44.47
2022-08-21T16:49:14.819Z,45.69
2022-08-21T16:51:44.487Z,43.92
2022-08-21T16:54:13.953Z,44.96
2022-08-21T16:56:47.006Z,45.55
2022-08-21T16:59:17.559Z,44.68
2022-08-21T17:01:46.121Z,45.96
2022-08-21T17:04:14.438Z,45.59
2022-08-21T17:06:44.243Z,47.02
2022-08-21T17:09:12.601Z,46.35
2022-08-21T17:11:42.380Z,47.12
2022-08-21T17:14:12.450Z,47.61
2022-08-21T17:16:41.623Z,46.49
2022-08-21T17:19:09.769Z,45.84
2022-08-21T17:21:37.757Z,47.04
2022-08-21T17:24:07.301Z,47.40
2022-08-21T17:26:35.693Z,48.02
2022-08-21T17:29:04.471Z,47.18
2022-08-21T17:31:32.611Z,47.82
2022-08-21T17:34:00.645Z,48.08
2022-08-21T17:36:30.306Z,45.82
2022-08-21T17:38:58.652Z,47.57
2022-08-21T17:41:28.710Z,47.89
2022-08-21T17:43:56.819Z,46.41
2022-08-21T17:46:27.735Z,48.27
2022-08-21T17:48:56.150Z,47.77
2022-08-21T17:51:24.277Z,48.80
2022-08-21T17:53:52.262Z,49.93
2022-08-21T17:56:20.958Z,48.98
2022-08-21T17:58:52.379Z,48.36
2022-08-21T18:01:20.968Z,49.76
2022-08-21T18:03:49.901Z,49.17
2022-08-21T18:06:18.469Z,49.57
2022-08-21T18:08:46.532Z,50.11
2022-08-21T18:11:23.190Z,50.98
2022-08-21T18:13:54.054Z,51.81
2022-08-21T18:16:22.413Z,51.89
2022-08-21T18:18:51.684Z,51.92
2022-08-21T18:21:19.988Z,52.56
2022-08-21T18:23:48.187Z,53.93
2022-08-21T18:26:20.923Z,54.25
2022-08-21T18:28:49.320Z,54.60
2022-08-21T18:31:18.712Z,54.74
2022-08-21T18:33:57.864Z,54.49
2022-08-21T18:36:26.975Z,54.73
2022-08-21T18:38:55.171Z,54.66
2022-08-21T18:41:23.732Z,55.38
2022-08-21T18:43:51.796Z,55.59
2022-08-21T18:46:21.143Z,56.19
2022-08-21T18:48:49.106Z,56.36
2022-08-21T18:51:17.566Z,56.93
2022-08-21T18:53:47.862Z,57.02
2022-08-21T18:56:21.889Z,57.26
2022-08-21T18:58:50.862Z,57.74
2022-08-21T19:01:18.893Z,58.57
2022-08-21T19:03:49.847Z,58.99
2022-08-21T19:06:17.981Z,58.38
2022-08-21T19:08:46.169Z,58.65
2022-08-21T19:11:14.592Z,59.16
2022-08-21T19:13:52.212Z,59.50
2022-08-21T19:16:21.094Z,60.28
2022-08-21T19:18:50.475Z,61.08
2022-08-21T19:21:18.478Z,61.02
2022-08-21T19:23:52.605Z,61.94
2022-08-21T19:26:22.043Z,62.18
2022-08-21T19:28:52.235Z,62.81
2022-08-21T19:31:23.862Z,62.99
2022-08-21T19:34:01.778Z,63.40
2022-08-21T19:36:45.350Z,64.05
2022-08-21T19:39:14.306Z,63.84
2022-08-21T19:41:45.457Z,64.46
2022-08-21T19:44:17.006Z,64.70
2022-08-21T19:46:49.939Z,64.99
2022-08-21T19:49:22.050Z,65.38
2022-08-21T19:51:50.580Z,65.70
2022-08-21T19:54:21.074Z,65.51
2022-08-21T19:56:49.758Z,65.25
2022-08-21T19:59:24.836Z,65.39
2022-08-21T20:01:53.235Z,65.03
2022-08-21T20:04:24.888Z,65.68
2022-08-21T20:06:55.810Z,66.20
2022-08-21T20:09:25.902Z,66.37
2022-08-21T20:11:59.756Z,66.39
2022-08-21T20:14:30.823Z,66.36
2022-08-21T20:17:01.989Z,66.92
2022-08-21T20:19:32.431Z,67.18
2022-08-21T20:22:00.540Z,67.26
2022-08-21T20:24:29.821Z,67.72
2022-08-21T20:26:58.377Z,67.54
2022-08-21T20:29:31.501Z,67.68
2022-08-21T20:32:07.804Z,67.69
2022-08-21T20:34:37.377Z,67.95
2022-08-21T20:37:05.724Z,67.73
2022-08-21T20:39:33.809Z,67.49
2022-08-21T20:42:01.843Z,67.43
2022-08-21T20:44:32.699Z,67.90
2022-08-21T20:47:01.443Z,68.64
2022-08-21T20:49:43.276Z,68.66
2022-08-21T20:52:11.405Z,68.73
2022-08-21T20:54:45.532Z,68.78
2022-08-21T20:57:18.180Z,69.39
2022-08-21T20:59:50.556Z,69.98
2022-08-21T21:02:26.750Z,70.01
2022-08-21T21:04:58.455Z,70.21
2022-08-21T21:07:32.532Z,70.13
2022-08-21T21:10:03.340Z,70.30
2022-08-21T21:12:35.661Z,70.38
2022-08-21T21:15:14.010Z,70.64
2022-08-21T21:17:44.269Z,70.51
2022-08-21T21:20:20.964Z,70.52
2022-08-21T21:22:56.504Z,70.91
2022-08-21T21:25:39.977Z,71.09
2022-08-21T21:28:12.803Z,70.96
2022-08-21T21:30:46.618Z,71.49
2022-08-21T21:33:16.513Z,71.96
2022-08-21T21:35:50.405Z,72.00
2022-08-21T21:38:26.152Z,71.89
2022-08-21T21:41:04.304Z,72.13
2022-08-21T21:43:45.145Z,72.96
2022-08-21T21:46:34.922Z,73.15
2022-08-21T21:49:20.994Z,72.88
2022-08-21T21:52:00.335Z,72.39
2022-08-21T21:54:51.814Z,72.61
2022-08-21T21:57:36.960Z,72.83
2022-08-21T22:00:09.775Z,72.98
2022-08-21T22:02:46.652Z,72.86
2022-08-21T22:05:22.176Z,73.03
2022-08-21T22:07:57.920Z,73.27
2022-08-21T22:10:32.065Z,72.97
2022-08-21T22:13:09.903Z,73.21
2022-08-21T22:15:41.463Z,73.09
2022-08-21T22:18:11.331Z,73.11
2022-08-21T22:20:44.234Z,72.89
2022-08-21T22:23:18.345Z,73.38
2022-08-21T22:25:50.624Z,73.57
2022-08-21T22:28:22.339Z,74.30
2022-08-21T22:30:56.471Z,74.13
2022-08-21T22:33:27.184Z,73.46
2022-08-21T22:35:57.465Z,74.44
2022-08-21T22:38:36.177Z,74.31
2022-08-21T22:41:13.756Z,74.46
2022-08-21T22:43:53.448Z,74.50
2022-08-21T22:46:28.912Z,75.02
2022-08-21T22:49:01.825Z,74.72
2022-08-21T22:51:34.106Z,74.16
2022-08-21T22:54:04.359Z,74.77
2022-08-21T22:59:38.097Z,75.44
2022-08-21T23:02:11.323Z,75.19
2022-08-21T23:04:46.884Z,75.08
2022-08-21T23:07:32.750Z,74.82
2022-08-21T23:10:02.474Z,75.19
2022-08-21T23:12:36.325Z,75.04
2022-08-21T23:15:09.296Z,75.10
2022-08-21T23:17:45.527Z,75.25
2022-08-21T23:20:22.719Z,74.97
2022-08-21T23:22:59.385Z,74.86
2022-08-21T23:25:42.593Z,75.16
2022-08-21T23:28:19.419Z,74.95
2022-08-21T23:31:06.683Z,74.62
2022-08-21T23:33:56.784Z,74.99
2022-08-21T23:36:47.909Z,74.78
2022-08-21T23:39:27.994Z,74.88
2022-08-21T23:42:02.418Z,74.90
2022-08-21T23:44:41.902Z,74.96
2022-08-21T23:47:21.943Z,75.02
2022-08-21T23:49:53.768Z,75.00
2022-08-21T23:52:30.750Z,75.55
2022-08-21T23:55:16.088Z,75.52
2022-08-21T23:57:54.106Z,75.75
